createdAt,value
2018-02-02T00:01:54.884Z,99685.20
2018-02-02T00:04:23.196Z,99683.86
2018-02-02T00:06:52.327Z,99686.88
2018-02-02T00:09:20.660Z,99683.39
2018-02-02T00:11:49.791Z,99683.80
2018-02-02T00:14:18.551Z,99679.94
2018-02-02T00:16:47.287Z,99682.55
2018-02-02T00:19:16.394Z,99680.80
2018-02-02T00:21:44.724Z,99681.66
2018-02-02T00:24:13.096Z,99685.52
2018-02-02T00:26:41.470Z,99684.23
2018-02-02T00:29:09.797Z,99684.64
2018-02-02T00:31:38.142Z,99681.64
2018-02-02T00:34:06.490Z,99679.48
2018-02-02T00:36:35.578Z,99679.03
2018-02-02T00:39:04.810Z,99671.27
2018-02-02T00:41:33.163Z,99676.41
2018-02-02T00:44:02.254Z,99678.95
2018-02-02T00:46:30.638Z,99673.80
2018-02-02T00:48:58.955Z,99679.03
2018-02-02T00:51:32.883Z,99684.23
2018-02-02T00:54:01.202Z,99678.59
2018-02-02T00:56:29.530Z,99674.20
2018-02-02T00:58:57.903Z,99684.58
2018-02-02T01:01:26.262Z,99685.91
2018-02-02T01:03:54.570Z,99680.30
2018-02-02T01:06:22.954Z,99623.27
2018-02-02T01:08:51.278Z,99685.85
2018-02-02T01:11:19.631Z,99685.39
2018-02-02T01:13:47.988Z,99685.34
2018-02-02T01:16:16.318Z,99697.02
2018-02-02T01:18:44.686Z,99690.53
2018-02-02T01:21:13.010Z,99692.64
2018-02-02T01:23:41.402Z,99698.67
2018-02-02T01:26:09.728Z,99695.17
2018-02-02T01:28:38.058Z,99689.52
2018-02-02T01:31:06.415Z,99686.92
2018-02-02T01:33:34.734Z,99684.78
2018-02-02T01:36:04.628Z,99685.65
2018-02-02T01:38:32.962Z,99691.24
2018-02-02T01:41:01.282Z,99695.52
2018-02-02T01:43:29.650Z,99692.48
2018-02-02T01:45:58.012Z,99697.70
2018-02-02T01:48:26.353Z,99699.83
2018-02-02T01:50:55.485Z,99699.41
2018-02-02T01:53:23.826Z,99700.72
2018-02-02T01:55:52.974Z,99701.53
2018-02-02T01:58:21.301Z,99707.57
2018-02-02T02:00:49.641Z,99706.29
2018-02-02T02:03:18.022Z,99702.45
2018-02-02T02:05:46.382Z,99705.01
2018-02-02T02:08:14.746Z,99699.89
2018-02-02T02:10:43.074Z,99699.47
2018-02-02T02:13:12.215Z,99703.87
2018-02-02T02:15:40.555Z,99706.92
2018-02-02T02:18:08.915Z,99707.30
2018-02-02T02:20:37.300Z,99711.27
2018-02-02T02:23:06.439Z,99709.59
2018-02-02T02:25:34.754Z,99712.64
2018-02-02T02:28:03.074Z,99712.33
2018-02-02T02:30:31.454Z,99705.41
2018-02-02T02:32:59.774Z,99711.91
2018-02-02T02:35:28.130Z,99709.88
2018-02-02T02:37:56.454Z,99709.05
2018-02-02T02:40:24.905Z,99711.70
2018-02-02T02:42:53.285Z,99703.89
2018-02-02T02:45:21.623Z,99704.31
2018-02-02T02:47:50.006Z,99701.73
2018-02-02T02:50:18.370Z,99704.37
2018-02-02T02:52:46.721Z,99704.37
2018-02-02T02:55:15.029Z,99702.17
2018-02-02T02:57:43.398Z,99696.99
2018-02-02T03:00:12.501Z,99697.45
2018-02-02T03:02:40.865Z,99704.86
2018-02-02T03:05:09.961Z,99705.27
2018-02-02T03:07:39.118Z,99706.98
2018-02-02T03:10:07.445Z,99702.61
2018-02-02T03:12:35.770Z,99703.02
2018-02-02T03:15:04.159Z,99703.08
2018-02-02T03:17:32.519Z,99714.80
2018-02-02T03:20:00.889Z,99715.70
2018-02-02T03:22:29.211Z,99713.95
2018-02-02T03:24:58.310Z,99717.06
2018-02-02T03:27:27.425Z,99720.99
2018-02-02T03:29:55.754Z,99717.04
2018-02-02T03:32:24.113Z,99718.86
2018-02-02T03:34:52.439Z,99719.29
2018-02-02T03:37:21.585Z,99714.97
2018-02-02T03:39:49.926Z,99716.69
2018-02-02T03:42:18.245Z,99719.25
2018-02-02T03:44:46.613Z,99719.66
2018-02-02T03:47:14.989Z,99721.45
2018-02-02T03:49:43.489Z,99728.83
2018-02-02T03:52:11.812Z,99729.63
2018-02-02T03:54:40.933Z,99725.35
2018-02-02T03:57:09.268Z,99727.55
2018-02-02T03:59:37.625Z,99726.17
2018-02-02T04:02:05.957Z,99732.70
2018-02-02T04:04:34.313Z,99732.69
2018-02-02T04:07:03.409Z,99734.47
2018-02-02T04:09:32.505Z,99736.11
2018-02-02T04:12:01.633Z,99729.16
2018-02-02T04:14:29.954Z,99733.50
2018-02-02T04:16:58.305Z,99731.72
2018-02-02T04:19:26.630Z,99736.48
2018-02-02T04:21:55.761Z,99730.90
2018-02-02T04:24:24.108Z,99736.54
2018-02-02T04:26:53.228Z,99736.56
2018-02-02T04:29:21.537Z,99737.41
2018-02-02T04:31:49.885Z,99741.27
2018-02-02T04:34:18.200Z,99741.19
2018-02-02T04:36:46.580Z,99742.52
2018-02-02T04:39:14.918Z,99746.83
2018-02-02T04:41:43.233Z,99748.11
2018-02-02T04:44:11.581Z,99747.27
2018-02-02T04:46:39.948Z,99747.17
2018-02-02T04:49:08.277Z,99760.58
2018-02-02T04:51:36.624Z,99756.75
2018-02-02T04:54:04.984Z,99759.71
2018-02-02T04:56:33.317Z,99757.08
2018-02-02T04:59:02.452Z,99759.73
2018-02-02T05:01:30.780Z,99761.92
2018-02-02T05:03:59.117Z,99761.59
2018-02-02T05:06:27.486Z,99765.05
2018-02-02T05:08:55.812Z,99767.70
2018-02-02T05:11:24.148Z,99774.18
2018-02-02T05:13:52.481Z,99778.45
2018-02-02T05:16:21.601Z,99774.14
2018-02-02T05:18:49.936Z,99777.70
2018-02-02T05:21:18.297Z,99784.98
2018-02-02T05:23:46.676Z,99782.38
2018-02-02T05:26:15.000Z,99775.45
2018-02-02T05:28:43.420Z,99778.88
2018-02-02T05:31:11.782Z,99775.41
2018-02-02T05:33:40.112Z,99765.84
2018-02-02T05:36:08.460Z,99764.48
2018-02-02T05:38:36.832Z,99767.54
2018-02-02T05:41:05.259Z,99765.42
2018-02-02T05:43:34.400Z,99770.56
2018-02-02T05:46:02.811Z,99762.31
2018-02-02T05:48:31.584Z,99750.19
2018-02-02T05:50:59.956Z,99753.14
2018-02-02T05:53:28.272Z,99758.34
2018-02-02T05:55:57.369Z,99756.11
2018-02-02T05:58:35.512Z,99761.36
2018-02-02T06:01:04.373Z,99766.11
2018-02-02T06:03:33.500Z,99766.94
2018-02-02T06:06:01.820Z,99767.77
2018-02-02T06:08:30.180Z,99774.20
2018-02-02T06:10:58.544Z,99771.56
2018-02-02T06:13:26.912Z,99769.84
2018-02-02T06:15:55.284Z,99771.92
2018-02-02T06:18:23.624Z,99774.95
2018-02-02T06:20:52.768Z,99777.56
2018-02-02T06:23:21.115Z,99782.76
2018-02-02T06:25:49.524Z,99780.05
2018-02-02T06:28:17.855Z,99781.36
2018-02-02T06:30:47.004Z,99779.65
2018-02-02T06:33:16.504Z,99781.81
2018-02-02T06:35:44.867Z,99783.61
2018-02-02T06:38:13.986Z,99785.25
2018-02-02T06:40:42.779Z,99789.17
2018-02-02T06:43:11.176Z,99778.77
2018-02-02T06:45:40.271Z,99770.89
2018-02-02T06:48:08.855Z,99774.44
2018-02-02T06:50:37.252Z,99778.34
2018-02-02T06:53:06.367Z,99779.67
2018-02-02T06:55:34.766Z,99785.78
2018-02-02T06:58:03.156Z,99787.17
2018-02-02T07:00:31.500Z,99790.63
2018-02-02T07:03:00.256Z,99786.33
2018-02-02T07:05:28.654Z,99789.84
2018-02-02T07:07:57.767Z,99787.39
2018-02-02T07:10:26.099Z,99792.17
2018-02-02T07:12:55.252Z,99786.61
2018-02-02T07:15:23.571Z,99793.97
2018-02-02T07:17:51.939Z,99792.70
2018-02-02T07:20:20.795Z,99789.28
2018-02-02T07:22:49.387Z,99794.55
2018-02-02T07:25:17.715Z,99800.23
2018-02-02T07:27:46.071Z,99796.77
2018-02-02T07:30:14.379Z,99795.52
2018-02-02T07:32:42.763Z,99797.72
2018-02-02T07:35:11.079Z,99798.19
2018-02-02T07:37:39.423Z,99799.09
2018-02-02T07:40:07.755Z,99806.48
2018-02-02T07:42:36.103Z,99802.19
2018-02-02T07:45:04.419Z,99804.08
2018-02-02T07:47:33.171Z,99805.02
2018-02-02T07:50:01.511Z,99804.17
2018-02-02T07:52:29.867Z,99810.30
2018-02-02T07:54:58.207Z,99807.30
2018-02-02T07:57:26.592Z,99811.64
2018-02-02T07:59:54.923Z,99814.72
2018-02-02T08:02:24.015Z,99813.88
2018-02-02T08:04:53.134Z,99811.30
2018-02-02T08:07:21.459Z,99806.11
2018-02-02T08:09:50.664Z,99812.19
2018-02-02T08:12:19.003Z,99809.59
2018-02-02T08:14:47.308Z,99812.20
2018-02-02T08:17:15.664Z,99812.63
2018-02-02T08:19:43.980Z,99801.76
2018-02-02T08:22:12.363Z,99807.84
2018-02-02T08:24:40.723Z,99808.28
2018-02-02T08:27:09.070Z,99809.57
2018-02-02T08:29:37.398Z,99810.44
2018-02-02T08:32:05.766Z,99816.99
2018-02-02T08:34:34.135Z,99814.35
2018-02-02T08:37:02.463Z,99816.54
2018-02-02T08:39:30.815Z,99809.59
2018-02-02T08:41:59.891Z,99807.83
2018-02-02T08:44:28.519Z,99803.91
2018-02-02T08:46:56.854Z,99808.27
2018-02-02T08:49:25.191Z,99799.52
2018-02-02T08:51:53.580Z,99805.63
2018-02-02T08:54:21.940Z,99800.81
2018-02-02T08:56:50.246Z,99801.25
2018-02-02T08:59:18.598Z,99793.84
2018-02-02T09:04:51.090Z,99802.95
2018-02-02T09:07:19.406Z,99804.25
2018-02-02T09:09:47.746Z,99796.38
2018-02-02T09:12:16.099Z,99807.65
2018-02-02T09:14:44.419Z,99807.22
2018-02-02T09:17:12.762Z,99805.00
2018-02-02T09:19:41.082Z,99811.53
2018-02-02T09:22:08.646Z,99809.75
2018-02-02T09:24:37.006Z,99810.15
2018-02-02T09:27:04.718Z,99805.80
2018-02-02T09:29:33.805Z,99817.95
2018-02-02T09:32:03.509Z,99809.67
2018-02-02T09:34:32.621Z,99816.21
2018-02-02T09:37:01.726Z,99816.59
2018-02-02T09:39:30.087Z,99817.91
2018-02-02T09:41:59.216Z,99814.41
2018-02-02T09:44:28.290Z,99817.42
2018-02-02T09:46:56.634Z,99816.11
2018-02-02T09:49:24.942Z,99816.06
2018-02-02T09:51:53.285Z,99822.11
2018-02-02T09:54:21.598Z,99822.11
2018-02-02T09:56:49.958Z,99822.50
2018-02-02T09:59:19.419Z,99819.00
2018-02-02T10:01:47.766Z,99815.02
2018-02-02T10:04:16.130Z,99805.41
2018-02-02T10:06:44.446Z,99807.59
2018-02-02T10:09:12.798Z,99810.97
2018-02-02T10:11:41.110Z,99808.39
2018-02-02T10:14:09.445Z,99809.64
2018-02-02T10:16:37.763Z,99800.03
2018-02-02T10:19:06.126Z,99799.55
2018-02-02T10:21:34.439Z,99789.48
2018-02-02T10:24:02.824Z,99792.48
2018-02-02T10:26:31.493Z,99797.70
2018-02-02T10:28:59.845Z,99802.01
2018-02-02T10:31:28.208Z,99794.08
2018-02-02T10:33:56.517Z,99791.01
2018-02-02T10:36:24.923Z,99793.64
2018-02-02T10:38:53.278Z,99795.80
2018-02-02T10:41:21.618Z,99788.64
2018-02-02T10:43:49.934Z,99789.88
2018-02-02T10:46:18.297Z,99782.95
2018-02-02T10:48:46.610Z,99788.19
2018-02-02T10:51:15.761Z,99782.02
2018-02-02T10:53:44.143Z,99782.50
2018-02-02T10:56:12.501Z,99774.91
2018-02-02T10:58:40.809Z,99777.54
2018-02-02T11:01:14.713Z,99774.99
2018-02-02T11:03:44.807Z,99778.77
2018-02-02T11:06:13.159Z,99777.44
2018-02-02T11:08:42.254Z,99772.59
2018-02-02T11:11:10.609Z,99775.57
2018-02-02T11:13:38.961Z,99758.02
2018-02-02T11:16:07.309Z,99759.31
2018-02-02T11:18:45.397Z,99754.93
2018-02-02T11:21:13.741Z,99747.92
2018-02-02T11:23:43.573Z,99746.61
2018-02-02T11:26:12.693Z,99751.36
2018-02-02T11:28:41.049Z,99744.78
2018-02-02T11:31:10.147Z,99734.59
2018-02-02T11:33:39.290Z,99742.46
2018-02-02T11:36:07.615Z,99745.12
2018-02-02T11:38:36.749Z,99734.55
2018-02-02T11:41:05.065Z,99730.98
2018-02-02T11:43:33.429Z,99736.70
2018-02-02T11:46:01.810Z,99736.26
2018-02-02T11:48:30.197Z,99736.68
2018-02-02T11:50:58.549Z,99731.40
2018-02-02T11:53:26.886Z,99726.14
2018-02-02T11:55:56.017Z,99726.39
2018-02-02T11:58:24.340Z,99715.83
2018-02-02T12:00:52.668Z,99719.11
2018-02-02T12:03:21.033Z,99722.91
2018-02-02T12:05:49.385Z,99722.77
2018-02-02T12:08:18.533Z,99719.31
2018-02-02T12:10:46.873Z,99712.45
2018-02-02T12:13:15.257Z,99714.70
2018-02-02T12:15:43.588Z,99705.13
2018-02-02T12:18:11.942Z,99712.56
2018-02-02T12:20:40.270Z,99718.22
2018-02-02T12:23:10.726Z,99715.62
2018-02-02T12:25:44.478Z,99714.62
2018-02-02T12:28:26.608Z,99711.64
2018-02-02T12:31:01.133Z,99713.83
2018-02-02T12:33:43.916Z,99710.02
2018-02-02T12:36:22.721Z,99705.04
2018-02-02T12:39:01.589Z,99703.56
2018-02-02T12:41:37.850Z,99701.75
2018-02-02T12:44:15.624Z,99697.41
2018-02-02T12:46:52.264Z,99704.66
2018-02-02T12:49:39.600Z,99702.30
2018-02-02T12:52:12.244Z,99698.88
2018-02-02T12:54:46.769Z,99695.97
2018-02-02T12:57:21.112Z,99693.39
2018-02-02T12:59:59.033Z,99688.53
2018-02-02T13:02:32.613Z,99686.47
2018-02-02T13:05:03.041Z,99684.20
2018-02-02T13:07:32.312Z,99686.09
2018-02-02T13:10:00.668Z,99686.42
2018-02-02T13:12:29.753Z,99680.86
2018-02-02T13:14:58.877Z,99684.55
2018-02-02T13:17:27.184Z,99686.53
2018-02-02T13:19:55.936Z,99686.68
2018-02-02T13:22:24.320Z,99683.15
2018-02-02T13:24:52.636Z,99687.04
2018-02-02T13:27:20.964Z,99679.34
2018-02-02T13:29:49.297Z,99685.52
2018-02-02T13:32:17.642Z,99694.77
2018-02-02T13:34:45.996Z,99679.60
2018-02-02T13:37:14.320Z,99687.64
2018-02-02T13:39:43.154Z,99691.33
2018-02-02T13:42:12.276Z,99684.98
2018-02-02T13:44:40.580Z,99681.33
2018-02-02T13:47:08.904Z,99680.86
2018-02-02T13:49:38.025Z,99681.43
2018-02-02T13:52:06.340Z,99688.95
2018-02-02T13:54:34.692Z,99683.91
2018-02-02T13:57:03.033Z,99686.58
2018-02-02T13:59:31.359Z,99687.02
2018-02-02T14:01:59.712Z,99688.02
2018-02-02T14:04:28.812Z,99684.58
2018-02-02T14:06:57.173Z,99683.64
2018-02-02T14:09:25.490Z,99687.75
2018-02-02T14:11:53.849Z,99685.77
2018-02-02T14:14:22.187Z,99691.36
2018-02-02T14:16:51.284Z,99692.23
2018-02-02T14:19:20.393Z,99692.56
2018-02-02T14:21:48.733Z,99690.76
2018-02-02T14:24:17.052Z,99696.11
2018-02-02T14:26:45.412Z,99694.92
2018-02-02T14:29:14.504Z,99694.56
2018-02-02T14:31:43.635Z,99703.25
2018-02-02T14:34:11.984Z,99706.52
2018-02-02T14:36:41.117Z,99702.45
2018-02-02T14:39:10.213Z,99708.41
2018-02-02T14:41:38.607Z,99702.09
2018-02-02T14:44:06.968Z,99707.09
2018-02-02T14:46:35.393Z,99703.97
2018-02-02T14:49:04.519Z,99704.58
2018-02-02T14:51:32.851Z,99703.44
2018-02-02T14:54:01.207Z,99698.41
2018-02-02T14:56:29.568Z,99703.92
2018-02-02T14:58:59.026Z,99702.49
2018-02-02T15:01:28.219Z,99705.14
2018-02-02T15:03:56.572Z,99693.39
2018-02-02T15:06:24.940Z,99707.04
2018-02-02T15:08:53.269Z,99700.47
2018-02-02T15:11:21.669Z,99696.20
2018-02-02T15:13:50.192Z,99703.41
2018-02-02T15:16:18.532Z,99707.94
2018-02-02T15:18:46.886Z,99707.49
2018-02-02T15:21:16.053Z,99707.59
2018-02-02T15:23:44.380Z,99710.34
2018-02-02T15:26:12.752Z,99709.52
2018-02-02T15:28:41.067Z,99713.02
2018-02-02T15:31:09.404Z,99711.34
2018-02-02T15:33:37.775Z,99714.31
2018-02-02T15:36:06.099Z,99718.33
2018-02-02T15:38:34.451Z,99717.54
2018-02-02T15:41:02.823Z,99715.39
2018-02-02T15:43:31.147Z,99715.02
2018-02-02T15:45:59.533Z,99715.09
2018-02-02T15:48:27.863Z,99712.95
2018-02-02T15:50:56.172Z,99723.09
2018-02-02T15:53:24.537Z,99727.45
2018-02-02T15:55:52.898Z,99729.70
2018-02-02T15:58:21.255Z,99730.65
2018-02-02T16:00:49.626Z,99736.75
2018-02-02T16:03:19.356Z,99735.91
2018-02-02T16:05:47.723Z,99739.06
2018-02-02T16:08:16.087Z,99744.77
2018-02-02T16:10:46.117Z,99749.15
2018-02-02T16:13:14.440Z,99747.91
2018-02-02T16:15:42.859Z,99744.84
2018-02-02T16:18:13.277Z,99743.10
2018-02-02T16:20:42.995Z,99740.03
2018-02-02T16:23:12.100Z,99745.31
2018-02-02T16:25:40.498Z,99743.59
2018-02-02T16:28:08.848Z,99738.83
2018-02-02T16:30:37.175Z,99745.33
2018-02-02T16:33:05.543Z,99733.66
2018-02-02T16:35:33.879Z,99743.67
2018-02-02T16:38:03.011Z,99746.30
2018-02-02T16:40:31.332Z,99743.22
2018-02-02T16:42:59.679Z,99742.34
2018-02-02T16:45:28.054Z,99741.52
2018-02-02T16:47:56.370Z,99738.50
2018-02-02T16:50:25.466Z,99747.17
2018-02-02T16:52:55.186Z,99748.04
2018-02-02T16:55:24.304Z,99745.87
2018-02-02T16:57:52.658Z,99749.37
2018-02-02T17:00:22.635Z,99747.69
2018-02-02T17:02:51.039Z,99750.74
2018-02-02T17:05:20.189Z,99751.20
2018-02-02T17:07:48.659Z,99758.65
2018-02-02T17:10:16.986Z,99752.54
2018-02-02T17:12:45.346Z,99758.23
2018-02-02T17:15:13.736Z,99759.53
2018-02-02T17:17:42.110Z,99760.84
2018-02-02T17:20:10.447Z,99766.52
2018-02-02T17:22:38.882Z,99764.34
2018-02-02T17:25:08.628Z,99765.20
2018-02-02T17:27:36.958Z,99767.83
2018-02-02T17:30:05.296Z,99766.09
2018-02-02T17:32:33.645Z,99767.46
2018-02-02T17:35:02.770Z,99769.63
2018-02-02T17:37:31.090Z,99768.78
2018-02-02T17:39:59.521Z,99757.89
2018-02-02T17:42:27.849Z,99770.53
2018-02-02T17:44:56.167Z,99771.39
2018-02-02T17:47:24.516Z,99763.52
2018-02-02T17:49:54.402Z,99769.20
2018-02-02T17:52:22.762Z,99769.16
2018-02-02T17:54:51.128Z,99767.48
2018-02-02T17:57:19.596Z,99768.36
2018-02-02T17:59:47.942Z,99773.16
2018-02-02T18:02:20.504Z,99772.73
2018-02-02T18:04:48.866Z,99763.65
2018-02-02T18:07:17.622Z,99778.48
2018-02-02T18:09:45.955Z,99777.63
2018-02-02T18:12:22.110Z,99774.59
2018-02-02T18:14:50.507Z,99780.69
2018-02-02T18:17:19.642Z,99769.77
2018-02-02T18:19:47.967Z,99772.45
2018-02-02T18:22:18.054Z,99779.46
2018-02-02T18:24:48.094Z,99783.38
2018-02-02T18:27:17.855Z,99723.92
2018-02-02T18:29:46.188Z,99779.97
2018-02-02T18:32:15.327Z,99779.53
2018-02-02T18:34:44.426Z,99779.12
2018-02-02T18:37:12.978Z,99775.27
2018-02-02T18:39:42.123Z,99769.23
2018-02-02T18:42:10.532Z,99772.81
2018-02-02T18:44:38.942Z,99776.30
2018-02-02T18:47:07.295Z,99773.67
2018-02-02T18:49:36.417Z,99773.19
2018-02-02T18:52:04.746Z,99774.06
2018-02-02T18:54:33.122Z,99777.98
2018-02-02T18:57:01.467Z,99778.44
2018-02-02T18:59:29.820Z,99787.58
2018-02-02T19:01:58.181Z,99786.22
2018-02-02T19:04:27.258Z,99784.47
2018-02-02T19:06:55.637Z,99781.40
2018-02-02T19:09:24.778Z,99778.78
2018-02-02T19:11:54.489Z,99775.72
2018-02-02T19:14:23.429Z,99777.89
2018-02-02T19:16:51.795Z,99775.25
2018-02-02T19:19:20.172Z,99772.58
2018-02-02T19:21:48.565Z,99779.56
2018-02-02T19:24:17.998Z,99774.29
2018-02-02T19:26:47.870Z,99773.37
2018-02-02T19:29:16.261Z,99772.48
2018-02-02T19:31:44.627Z,99777.28
2018-02-02T19:34:13.183Z,99771.16
2018-02-02T19:36:42.277Z,99772.41
2018-02-02T19:39:11.650Z,99769.34
2018-02-02T19:41:43.504Z,99767.22
2018-02-02T19:44:12.617Z,99761.19
2018-02-02T19:46:40.961Z,99758.13
2018-02-02T19:49:09.341Z,99753.80
2018-02-02T19:51:37.849Z,99754.67
2018-02-02T19:54:07.149Z,99759.05
2018-02-02T19:56:35.526Z,99758.16
2018-02-02T19:59:04.826Z,99757.27
2018-02-02T20:01:33.137Z,99759.45
2018-02-02T20:04:01.470Z,99758.18
2018-02-02T20:06:30.724Z,99758.62
2018-02-02T20:09:00.734Z,99754.23
2018-02-02T20:11:29.850Z,99760.77
2018-02-02T20:13:59.865Z,99760.66
2018-02-02T20:16:29.881Z,99758.52
2018-02-02T20:18:59.110Z,99755.88
2018-02-02T20:21:30.205Z,99758.59
2018-02-02T20:23:58.897Z,99760.75
2018-02-02T20:26:27.265Z,99759.02
2018-02-02T20:28:56.484Z,99757.30
2018-02-02T20:31:25.428Z,99758.22
2018-02-02T20:33:53.773Z,99759.19
2018-02-02T20:36:23.826Z,99760.07
2018-02-02T20:38:52.968Z,99758.34
2018-02-02T20:41:22.146Z,99763.63
2018-02-02T20:43:51.244Z,99749.78
2018-02-02T20:46:20.014Z,99757.64
2018-02-02T20:48:49.649Z,99770.06
2018-02-02T20:51:18.033Z,99769.70
2018-02-02T20:53:46.654Z,99767.53
2018-02-02T20:56:14.993Z,99769.75
2018-02-02T20:58:43.340Z,99767.13
2018-02-02T21:01:11.704Z,99767.95
2018-02-02T21:03:40.070Z,99770.06
2018-02-02T21:06:08.777Z,99767.38
2018-02-02T21:08:37.128Z,99762.56
2018-02-02T21:11:06.235Z,99759.03
2018-02-02T21:13:38.118Z,99759.88
2018-02-02T21:16:07.054Z,99767.69
2018-02-02T21:18:35.380Z,99760.67
2018-02-02T21:21:03.735Z,99765.47
2018-02-02T21:23:32.164Z,99759.31
2018-02-02T21:26:00.588Z,99761.05
2018-02-02T21:28:29.200Z,99758.91
2018-02-02T21:30:58.290Z,99764.96
2018-02-02T21:33:26.617Z,99761.45
2018-02-02T21:35:55.046Z,99760.09
2018-02-02T21:38:23.366Z,99762.70
2018-02-02T21:40:52.492Z,99762.69
2018-02-02T21:43:21.572Z,99767.50
2018-02-02T21:45:49.936Z,99761.83
2018-02-02T21:48:18.502Z,99766.62
2018-02-02T21:50:46.868Z,99763.55
2018-02-02T21:53:15.294Z,99764.42
2018-02-02T21:55:44.945Z,99760.88
2018-02-02T21:58:13.691Z,99760.44
2018-02-02T22:00:42.989Z,99760.35
2018-02-02T22:03:12.115Z,99762.06
2018-02-02T22:05:41.029Z,99765.59
2018-02-02T22:08:09.373Z,99760.33
2018-02-02T22:10:38.468Z,99756.41
2018-02-02T22:13:06.793Z,99757.19
2018-02-02T22:15:35.658Z,99758.56
2018-02-02T22:18:04.072Z,99752.11
2018-02-02T22:20:32.417Z,99759.97
2018-02-02T22:23:01.422Z,99748.61
2018-02-02T22:25:30.529Z,99756.94
2018-02-02T22:27:58.904Z,99757.37
2018-02-02T22:30:27.804Z,99753.89
2018-02-02T22:32:57.064Z,99749.59
2018-02-02T22:35:25.392Z,99753.53
2018-02-02T22:37:53.760Z,99754.42
2018-02-02T22:40:22.892Z,99749.61
2018-02-02T22:42:52.761Z,99750.92
2018-02-02T22:45:21.140Z,99750.48
2018-02-02T22:47:49.471Z,99749.93
2018-02-02T22:50:17.836Z,99752.98
2018-02-02T22:52:46.920Z,99749.09
2018-02-02T22:55:16.036Z,99757.37
2018-02-02T22:57:44.391Z,99752.57
2018-02-02T23:00:14.601Z,99757.81
2018-02-02T23:02:42.966Z,99763.06
2018-02-02T23:05:11.335Z,99760.41
2018-02-02T23:07:39.665Z,99758.23
2018-02-02T23:10:08.038Z,99765.23
2018-02-02T23:12:36.365Z,99760.35
2018-02-02T23:15:04.755Z,99766.88
2018-02-02T23:17:33.071Z,99759.47
2018-02-02T23:20:02.156Z,99765.20
2018-02-02T23:22:31.323Z,99763.83
2018-02-02T23:24:59.643Z,99762.95
2018-02-02T23:27:28.051Z,99761.21
2018-02-02T23:29:56.368Z,99753.43
2018-02-02T23:32:25.122Z,99746.88
2018-02-02T23:34:53.475Z,99747.31
2018-02-02T23:37:21.803Z,99747.75
2018-02-02T23:39:50.179Z,99742.54
2018-02-02T23:42:18.508Z,99744.80
2018-02-02T23:44:47.253Z,99747.84
2018-02-02T23:47:15.571Z,99743.38
2018-02-02T23:49:44.440Z,99745.17
2018-02-02T23:52:13.211Z,99749.08
2018-02-02T23:54:41.556Z,99750.80
2018-02-02T23:57:10.699Z,99746.05
2018-02-02T23:59:39.815Z,99743.91
